sensor_id;sensor_type;location;lat;lon;timestamp;temperature;humidity
45843;DHT22;31563;51.744;8.252;2023-03-31T00:00:50;22.30;43.90
45843;DHT22;31563;51.744;8.252;2023-03-31T00:03:18;22.30;43.90
45843;DHT22;31563;51.744;8.252;2023-03-31T00:05:55;22.20;43.90
45843;DHT22;31563;51.744;8.252;2023-03-31T00:08:24;22.20;43.90
45843;DHT22;31563;51.744;8.252;2023-03-31T00:10:57;22.20;44.00
45843;DHT22;31563;51.744;8.252;2023-03-31T00:13:25;22.20;43.90
45843;DHT22;31563;51.744;8.252;2023-03-31T00:15:55;22.20;43.90
45843;DHT22;31563;51.744;8.252;2023-03-31T00:18:23;22.20;43.80
45843;DHT22;31563;51.744;8.252;2023-03-31T00:20:52;22.20;43.80
45843;DHT22;31563;51.744;8.252;2023-03-31T00:23:21;22.10;43.70
45843;DHT22;31563;51.744;8.252;2023-03-31T00:25:53;22.20;43.90
45843;DHT22;31563;51.744;8.252;2023-03-31T00:28:21;22.20;43.80
45843;DHT22;31563;51.744;8.252;2023-03-31T00:30:49;22.20;43.90
45843;DHT22;31563;51.744;8.252;2023-03-31T00:33:18;22.20;43.80
45843;DHT22;31563;51.744;8.252;2023-03-31T00:35:49;22.10;43.80
45843;DHT22;31563;51.744;8.252;2023-03-31T00:38:17;22.10;43.70
45843;DHT22;31563;51.744;8.252;2023-03-31T00:40:48;22.10;43.80
45843;DHT22;31563;51.744;8.252;2023-03-31T00:43:29;22.10;43.70
45843;DHT22;31563;51.744;8.252;2023-03-31T00:46:05;22.10;43.70
45843;DHT22;31563;51.744;8.252;2023-03-31T00:48:35;22.20;43.80
45843;DHT22;31563;51.744;8.252;2023-03-31T00:51:04;22.10;43.70
45843;DHT22;31563;51.744;8.252;2023-03-31T00:53:33;22.20;43.80
45843;DHT22;31563;51.744;8.252;2023-03-31T00:56:06;22.10;43.70
45843;DHT22;31563;51.744;8.252;2023-03-31T00:58:35;22.10;43.70
45843;DHT22;31563;51.744;8.252;2023-03-31T01:01:10;22.00;43.70
45843;DHT22;31563;51.744;8.252;2023-03-31T01:03:41;22.00;43.70
45843;DHT22;31563;51.744;8.252;2023-03-31T01:06:12;22.00;43.70
45843;DHT22;31563;51.744;8.252;2023-03-31T01:08:45;22.00;43.70
45843;DHT22;31563;51.744;8.252;2023-03-31T01:11:16;22.00;43.60
45843;DHT22;31563;51.744;8.252;2023-03-31T01:13:45;22.00;43.70
45843;DHT22;31563;51.744;8.252;2023-03-31T01:16:15;21.90;43.60
45843;DHT22;31563;51.744;8.252;2023-03-31T01:18:43;21.90;43.70
45843;DHT22;31563;51.744;8.252;2023-03-31T01:21:17;21.90;43.70
45843;DHT22;31563;51.744;8.252;2023-03-31T01:27:01;21.90;43.70
45843;DHT22;31563;51.744;8.252;2023-03-31T01:29:39;21.90;43.70
45843;DHT22;31563;51.744;8.252;2023-03-31T01:32:18;21.90;43.80
45843;DHT22;31563;51.744;8.252;2023-03-31T01:35:00;21.90;43.80
45843;DHT22;31563;51.744;8.252;2023-03-31T01:37:55;21.80;43.70
45843;DHT22;31563;51.744;8.252;2023-03-31T01:43:23;21.80;43.70
45843;DHT22;31563;51.744;8.252;2023-03-31T01:45:54;21.80;43.70
45843;DHT22;31563;51.744;8.252;2023-03-31T01:48:26;21.80;43.70
45843;DHT22;31563;51.744;8.252;2023-03-31T01:51:00;21.80;43.70
45843;DHT22;31563;51.744;8.252;2023-03-31T01:53:30;21.80;43.70
45843;DHT22;31563;51.744;8.252;2023-03-31T01:56:01;21.80;43.70
45843;DHT22;31563;51.744;8.252;2023-03-31T01:58:34;21.80;43.60
45843;DHT22;31563;51.744;8.252;2023-03-31T02:01:05;21.70;43.60
45843;DHT22;31563;51.744;8.252;2023-03-31T02:03:37;21.70;44.20
45843;DHT22;31563;51.744;8.252;2023-03-31T02:06:09;21.70;43.60
45843;DHT22;31563;51.744;8.252;2023-03-31T02:08:39;21.70;44.30
45843;DHT22;31563;51.744;8.252;2023-03-31T02:11:07;21.70;43.60
45843;DHT22;31563;51.744;8.252;2023-03-31T02:13:38;21.70;43.60
45843;DHT22;31563;51.744;8.252;2023-03-31T02:16:08;21.70;43.70
45843;DHT22;31563;51.744;8.252;2023-03-31T02:18:37;21.70;43.70
45843;DHT22;31563;51.744;8.252;2023-03-31T02:21:07;21.70;43.70
45843;DHT22;31563;51.744;8.252;2023-03-31T02:23:35;21.60;43.60
45843;DHT22;31563;51.744;8.252;2023-03-31T02:26:06;21.70;43.70
45843;DHT22;31563;51.744;8.252;2023-03-31T02:28:34;21.60;43.60
45843;DHT22;31563;51.744;8.252;2023-03-31T02:31:05;21.60;43.70
45843;DHT22;31563;51.744;8.252;2023-03-31T02:33:36;21.60;43.70
45843;DHT22;31563;51.744;8.252;2023-03-31T02:36:04;21.60;43.70
45843;DHT22;31563;51.744;8.252;2023-03-31T02:38:34;21.50;43.80
45843;DHT22;31563;51.744;8.252;2023-03-31T02:41:05;21.60;43.70
45843;DHT22;31563;51.744;8.252;2023-03-31T02:43:33;21.50;43.70
45843;DHT22;31563;51.744;8.252;2023-03-31T02:46:01;21.60;43.80
45843;DHT22;31563;51.744;8.252;2023-03-31T02:48:31;21.50;43.80
45843;DHT22;31563;51.744;8.252;2023-03-31T02:51:11;21.50;43.80
45843;DHT22;31563;51.744;8.252;2023-03-31T02:53:47;21.60;43.90
45843;DHT22;31563;51.744;8.252;2023-03-31T02:56:33;21.50;43.70
45843;DHT22;31563;51.744;8.252;2023-03-31T02:59:10;21.50;43.80
45843;DHT22;31563;51.744;8.252;2023-03-31T03:01:43;21.60;43.90
45843;DHT22;31563;51.744;8.252;2023-03-31T03:04:20;21.50;43.80
45843;DHT22;31563;51.744;8.252;2023-03-31T03:06:53;21.50;43.70
45843;DHT22;31563;51.744;8.252;2023-03-31T03:09:26;21.50;43.70
45843;DHT22;31563;51.744;8.252;2023-03-31T03:12:00;21.60;43.80
45843;DHT22;31563;51.744;8.252;2023-03-31T03:14:33;21.50;43.70
45843;DHT22;31563;51.744;8.252;2023-03-31T03:17:04;21.60;43.80
45843;DHT22;31563;51.744;8.252;2023-03-31T03:19:34;21.50;43.70
45843;DHT22;31563;51.744;8.252;2023-03-31T03:22:02;21.50;43.80
45843;DHT22;31563;51.744;8.252;2023-03-31T03:24:33;21.50;43.80
45843;DHT22;31563;51.744;8.252;2023-03-31T03:27:01;21.50;43.90
45843;DHT22;31563;51.744;8.252;2023-03-31T03:29:29;21.50;43.90
45843;DHT22;31563;51.744;8.252;2023-03-31T03:31:57;21.40;43.80
45843;DHT22;31563;51.744;8.252;2023-03-31T03:34:25;21.50;43.90
45843;DHT22;31563;51.744;8.252;2023-03-31T03:36:54;21.40;43.90
45843;DHT22;31563;51.744;8.252;2023-03-31T03:39:22;21.40;43.90
45843;DHT22;31563;51.744;8.252;2023-03-31T03:41:50;21.40;44.00
45843;DHT22;31563;51.744;8.252;2023-03-31T03:44:18;21.40;43.90
45843;DHT22;31563;51.744;8.252;2023-03-31T03:46:46;21.40;44.10
45843;DHT22;31563;51.744;8.252;2023-03-31T03:49:14;21.40;44.00
45843;DHT22;31563;51.744;8.252;2023-03-31T03:51:42;21.50;44.00
45843;DHT22;31563;51.744;8.252;2023-03-31T03:54:11;21.50;44.00
45843;DHT22;31563;51.744;8.252;2023-03-31T03:56:39;21.50;44.00
45843;DHT22;31563;51.744;8.252;2023-03-31T03:59:07;21.50;43.90
45843;DHT22;31563;51.744;8.252;2023-03-31T04:01:35;21.60;44.00
45843;DHT22;31563;51.744;8.252;2023-03-31T04:04:04;21.60;43.90
45843;DHT22;31563;51.744;8.252;2023-03-31T04:06:32;21.60;43.90
45843;DHT22;31563;51.744;8.252;2023-03-31T04:09:00;21.60;43.90
45843;DHT22;31563;51.744;8.252;2023-03-31T04:11:29;21.60;43.80
45843;DHT22;31563;51.744;8.252;2023-03-31T04:13:57;21.60;43.70
45843;DHT22;31563;51.744;8.252;2023-03-31T04:16:25;21.60;43.80
45843;DHT22;31563;51.744;8.252;2023-03-31T04:18:53;21.60;43.80
45843;DHT22;31563;51.744;8.252;2023-03-31T04:21:22;21.60;43.90
45843;DHT22;31563;51.744;8.252;2023-03-31T04:23:50;21.60;44.20
45843;DHT22;31563;51.744;8.252;2023-03-31T04:26:25;21.60;44.70
45843;DHT22;31563;51.744;8.252;2023-03-31T04:28:58;21.60;44.60
45843;DHT22;31563;51.744;8.252;2023-03-31T04:31:26;21.70;44.60
45843;DHT22;31563;51.744;8.252;2023-03-31T04:33:56;21.70;44.80
45843;DHT22;31563;51.744;8.252;2023-03-31T04:36:28;21.70;45.00
45843;DHT22;31563;51.744;8.252;2023-03-31T04:38:57;21.70;44.90
45843;DHT22;31563;51.744;8.252;2023-03-31T04:41:24;21.70;44.90
45843;DHT22;31563;51.744;8.252;2023-03-31T04:43:54;21.70;45.10
45843;DHT22;31563;51.744;8.252;2023-03-31T04:46:23;21.60;45.00
45843;DHT22;31563;51.744;8.252;2023-03-31T04:48:52;21.60;45.20
45843;DHT22;31563;51.744;8.252;2023-03-31T04:51:20;21.60;45.10
45843;DHT22;31563;51.744;8.252;2023-03-31T04:53:48;21.60;45.10
45843;DHT22;31563;51.744;8.252;2023-03-31T04:56:15;21.60;45.10
45843;DHT22;31563;51.744;8.252;2023-03-31T04:58:43;21.60;45.10
45843;DHT22;31563;51.744;8.252;2023-03-31T05:01:11;21.60;45.10
45843;DHT22;31563;51.744;8.252;2023-03-31T05:03:45;21.60;45.10
45843;DHT22;31563;51.744;8.252;2023-03-31T05:06:14;21.60;45.00
45843;DHT22;31563;51.744;8.252;2023-03-31T05:08:42;21.60;45.20
45843;DHT22;31563;51.744;8.252;2023-03-31T05:11:10;21.60;45.40
45843;DHT22;31563;51.744;8.252;2023-03-31T05:13:38;21.60;45.40
45843;DHT22;31563;51.744;8.252;2023-03-31T05:16:06;21.50;45.20
45843;DHT22;31563;51.744;8.252;2023-03-31T05:18:35;21.40;45.60
45843;DHT22;31563;51.744;8.252;2023-03-31T05:21:11;21.20;45.70
45843;DHT22;31563;51.744;8.252;2023-03-31T05:23:39;21.30;46.30
45843;DHT22;31563;51.744;8.252;2023-03-31T05:26:07;21.30;46.50
45843;DHT22;31563;51.744;8.252;2023-03-31T05:28:36;21.40;46.60
45843;DHT22;31563;51.744;8.252;2023-03-31T05:31:05;21.40;46.60
45843;DHT22;31563;51.744;8.252;2023-03-31T05:33:33;21.40;46.50
45843;DHT22;31563;51.744;8.252;2023-03-31T05:36:06;21.40;46.60
45843;DHT22;31563;51.744;8.252;2023-03-31T05:38:37;21.40;46.60
45843;DHT22;31563;51.744;8.252;2023-03-31T05:41:05;21.50;46.70
45843;DHT22;31563;51.744;8.252;2023-03-31T05:43:34;21.50;46.70
45843;DHT22;31563;51.744;8.252;2023-03-31T05:46:02;21.40;46.60
45843;DHT22;31563;51.744;8.252;2023-03-31T05:48:31;21.50;46.70
45843;DHT22;31563;51.744;8.252;2023-03-31T05:50:59;21.40;46.50
45843;DHT22;31563;51.744;8.252;2023-03-31T05:53:27;21.40;46.60
45843;DHT22;31563;51.744;8.252;2023-03-31T05:55:57;21.30;46.80
45843;DHT22;31563;51.744;8.252;2023-03-31T05:58:26;21.30;46.80
45843;DHT22;31563;51.744;8.252;2023-03-31T06:01:00;21.30;47.50
45843;DHT22;31563;51.744;8.252;2023-03-31T06:03:32;21.20;46.70
45843;DHT22;31563;51.744;8.252;2023-03-31T06:06:00;21.20;47.00
45843;DHT22;31563;51.744;8.252;2023-03-31T06:08:28;21.10;47.10
45843;DHT22;31563;51.744;8.252;2023-03-31T06:10:57;21.10;47.30
45843;DHT22;31563;51.744;8.252;2023-03-31T06:13:25;21.20;47.30
45843;DHT22;31563;51.744;8.252;2023-03-31T06:15:54;21.20;47.30
45843;DHT22;31563;51.744;8.252;2023-03-31T06:18:22;21.30;47.30
45843;DHT22;31563;51.744;8.252;2023-03-31T06:20:50;21.20;47.20
45843;DHT22;31563;51.744;8.252;2023-03-31T06:23:18;21.30;47.30
45843;DHT22;31563;51.744;8.252;2023-03-31T06:25:46;21.30;47.30
45843;DHT22;31563;51.744;8.252;2023-03-31T06:28:18;21.30;47.30
45843;DHT22;31563;51.744;8.252;2023-03-31T06:30:46;21.30;47.30
45843;DHT22;31563;51.744;8.252;2023-03-31T06:33:14;21.30;47.20
45843;DHT22;31563;51.744;8.252;2023-03-31T06:35:43;21.30;47.20
45843;DHT22;31563;51.744;8.252;2023-03-31T06:38:11;21.30;47.20
45843;DHT22;31563;51.744;8.252;2023-03-31T06:40:38;21.30;47.20
45843;DHT22;31563;51.744;8.252;2023-03-31T06:43:06;21.30;47.20
45843;DHT22;31563;51.744;8.252;2023-03-31T06:45:37;21.30;47.20
45843;DHT22;31563;51.744;8.252;2023-03-31T06:48:05;21.40;47.30
45843;DHT22;31563;51.744;8.252;2023-03-31T06:50:35;21.50;47.20
45843;DHT22;31563;51.744;8.252;2023-03-31T06:53:03;21.60;47.00
45843;DHT22;31563;51.744;8.252;2023-03-31T06:55:31;21.60;46.90
45843;DHT22;31563;51.744;8.252;2023-03-31T06:57:59;21.60;46.80
45843;DHT22;31563;51.744;8.252;2023-03-31T07:00:28;21.60;46.70
45843;DHT22;31563;51.744;8.252;2023-03-31T07:02:57;21.60;46.70
45843;DHT22;31563;51.744;8.252;2023-03-31T07:05:25;21.70;46.60
45843;DHT22;31563;51.744;8.252;2023-03-31T07:07:54;21.70;46.50
45843;DHT22;31563;51.744;8.252;2023-03-31T07:10:23;21.60;46.30
45843;DHT22;31563;51.744;8.252;2023-03-31T07:12:51;21.60;46.20
45843;DHT22;31563;51.744;8.252;2023-03-31T07:15:19;21.60;46.20
45843;DHT22;31563;51.744;8.252;2023-03-31T07:17:47;21.60;46.30
45843;DHT22;31563;51.744;8.252;2023-03-31T07:20:18;21.60;46.30
45843;DHT22;31563;51.744;8.252;2023-03-31T07:22:47;21.60;46.30
45843;DHT22;31563;51.744;8.252;2023-03-31T07:25:16;21.60;46.10
45843;DHT22;31563;51.744;8.252;2023-03-31T07:27:44;21.70;46.20
45843;DHT22;31563;51.744;8.252;2023-03-31T07:30:12;21.70;46.00
45843;DHT22;31563;51.744;8.252;2023-03-31T07:32:41;21.60;46.00
45843;DHT22;31563;51.744;8.252;2023-03-31T07:35:09;21.60;46.00
45843;DHT22;31563;51.744;8.252;2023-03-31T07:37:39;21.60;46.10
45843;DHT22;31563;51.744;8.252;2023-03-31T07:40:08;21.60;46.10
45843;DHT22;31563;51.744;8.252;2023-03-31T07:42:37;21.70;45.90
45843;DHT22;31563;51.744;8.252;2023-03-31T07:45:05;21.70;45.90
45843;DHT22;31563;51.744;8.252;2023-03-31T07:47:33;21.70;45.80
45843;DHT22;31563;51.744;8.252;2023-03-31T07:50:02;21.60;45.60
45843;DHT22;31563;51.744;8.252;2023-03-31T07:52:29;21.70;45.80
45843;DHT22;31563;51.744;8.252;2023-03-31T07:54:59;21.60;45.80
45843;DHT22;31563;51.744;8.252;2023-03-31T07:57:27;21.60;45.80
45843;DHT22;31563;51.744;8.252;2023-03-31T07:59:55;21.60;45.70
45843;DHT22;31563;51.744;8.252;2023-03-31T08:02:23;21.70;45.60
45843;DHT22;31563;51.744;8.252;2023-03-31T08:04:51;21.70;45.60
45843;DHT22;31563;51.744;8.252;2023-03-31T08:07:19;21.70;45.60
45843;DHT22;31563;51.744;8.252;2023-03-31T08:09:47;21.70;45.60
45843;DHT22;31563;51.744;8.252;2023-03-31T08:12:16;21.70;45.60
45843;DHT22;31563;51.744;8.252;2023-03-31T08:14:44;21.70;45.70
45843;DHT22;31563;51.744;8.252;2023-03-31T08:17:12;21.80;45.60
45843;DHT22;31563;51.744;8.252;2023-03-31T08:19:40;21.80;45.30
45843;DHT22;31563;51.744;8.252;2023-03-31T08:22:08;21.80;45.30
45843;DHT22;31563;51.744;8.252;2023-03-31T08:24:36;21.80;45.30
45843;DHT22;31563;51.744;8.252;2023-03-31T08:27:04;21.70;45.20
45843;DHT22;31563;51.744;8.252;2023-03-31T08:29:39;21.70;45.40
45843;DHT22;31563;51.744;8.252;2023-03-31T08:32:07;21.70;45.40
45843;DHT22;31563;51.744;8.252;2023-03-31T08:34:35;21.70;45.40
45843;DHT22;31563;51.744;8.252;2023-03-31T08:37:03;21.60;45.30
45843;DHT22;31563;51.744;8.252;2023-03-31T08:39:31;21.70;45.40
45843;DHT22;31563;51.744;8.252;2023-03-31T08:42:00;21.70;45.50
45843;DHT22;31563;51.744;8.252;2023-03-31T08:44:30;21.70;45.50
45843;DHT22;31563;51.744;8.252;2023-03-31T08:47:01;21.60;45.40
45843;DHT22;31563;51.744;8.252;2023-03-31T08:49:32;21.70;45.40
45843;DHT22;31563;51.744;8.252;2023-03-31T08:52:04;21.70;45.50
45843;DHT22;31563;51.744;8.252;2023-03-31T08:54:36;21.80;45.40
45843;DHT22;31563;51.744;8.252;2023-03-31T08:57:09;21.80;45.20
45843;DHT22;31563;51.744;8.252;2023-03-31T08:59:39;21.80;45.10
45843;DHT22;31563;51.744;8.252;2023-03-31T09:02:11;21.80;45.00
45843;DHT22;31563;51.744;8.252;2023-03-31T09:04:50;21.80;45.10
45843;DHT22;31563;51.744;8.252;2023-03-31T09:07:23;21.80;45.00
45843;DHT22;31563;51.744;8.252;2023-03-31T09:09:54;21.70;45.00
45843;DHT22;31563;51.744;8.252;2023-03-31T09:12:27;21.70;45.10
45843;DHT22;31563;51.744;8.252;2023-03-31T09:15:01;21.70;45.10
45843;DHT22;31563;51.744;8.252;2023-03-31T09:17:32;21.80;45.20
45843;DHT22;31563;51.744;8.252;2023-03-31T09:20:03;21.80;45.20
45843;DHT22;31563;51.744;8.252;2023-03-31T09:22:34;21.80;45.10
45843;DHT22;31563;51.744;8.252;2023-03-31T09:25:06;21.90;45.10
45843;DHT22;31563;51.744;8.252;2023-03-31T09:27:38;21.90;45.10
45843;DHT22;31563;51.744;8.252;2023-03-31T09:30:09;21.90;45.00
45843;DHT22;31563;51.744;8.252;2023-03-31T09:32:41;21.90;44.80
45843;DHT22;31563;51.744;8.252;2023-03-31T09:35:13;21.90;45.10
45843;DHT22;31563;51.744;8.252;2023-03-31T09:37:42;21.90;45.10
45843;DHT22;31563;51.744;8.252;2023-03-31T09:40:13;22.00;45.00
45843;DHT22;31563;51.744;8.252;2023-03-31T09:42:42;22.00;44.80
45843;DHT22;31563;51.744;8.252;2023-03-31T09:45:13;22.00;44.70
45843;DHT22;31563;51.744;8.252;2023-03-31T09:47:44;22.00;44.60
45843;DHT22;31563;51.744;8.252;2023-03-31T09:50:13;21.90;44.60
45843;DHT22;31563;51.744;8.252;2023-03-31T09:52:42;21.90;44.60
45843;DHT22;31563;51.744;8.252;2023-03-31T09:55:15;21.90;44.80
45843;DHT22;31563;51.744;8.252;2023-03-31T09:58:04;21.80;44.90
45843;DHT22;31563;51.744;8.252;2023-03-31T10:00:33;21.90;44.90
45843;DHT22;31563;51.744;8.252;2023-03-31T10:03:03;22.00;44.90
45843;DHT22;31563;51.744;8.252;2023-03-31T10:05:34;22.00;44.70
45843;DHT22;31563;51.744;8.252;2023-03-31T10:08:23;21.90;44.70
45843;DHT22;31563;51.744;8.252;2023-03-31T10:10:52;22.00;44.70
45843;DHT22;31563;51.744;8.252;2023-03-31T10:13:21;22.00;44.60
45843;DHT22;31563;51.744;8.252;2023-03-31T10:15:52;22.00;44.80
45843;DHT22;31563;51.744;8.252;2023-03-31T10:18:22;22.00;44.70
45843;DHT22;31563;51.744;8.252;2023-03-31T10:20:58;22.10;44.80
45843;DHT22;31563;51.744;8.252;2023-03-31T10:23:27;22.20;45.00
45843;DHT22;31563;51.744;8.252;2023-03-31T10:25:55;22.30;44.90
45843;DHT22;31563;51.744;8.252;2023-03-31T10:28:23;22.50;44.50
45843;DHT22;31563;51.744;8.252;2023-03-31T10:30:52;22.60;44.40
45843;DHT22;31563;51.744;8.252;2023-03-31T10:33:23;22.50;44.20
45843;DHT22;31563;51.744;8.252;2023-03-31T10:35:53;22.70;44.50
45843;DHT22;31563;51.744;8.252;2023-03-31T10:38:24;22.80;44.90
45843;DHT22;31563;51.744;8.252;2023-03-31T10:40:53;23.20;45.00
45843;DHT22;31563;51.744;8.252;2023-03-31T10:43:24;23.60;44.70
45843;DHT22;31563;51.744;8.252;2023-03-31T10:45:53;23.90;44.10
45843;DHT22;31563;51.744;8.252;2023-03-31T10:48:24;24.70;45.00
45843;DHT22;31563;51.744;8.252;2023-03-31T10:50:53;25.80;43.40
45843;DHT22;31563;51.744;8.252;2023-03-31T10:53:22;26.20;42.80
45843;DHT22;31563;51.744;8.252;2023-03-31T10:55:53;26.70;42.70
45843;DHT22;31563;51.744;8.252;2023-03-31T10:58:27;27.40;42.00
45843;DHT22;31563;51.744;8.252;2023-03-31T11:01:01;27.70;40.20
45843;DHT22;31563;51.744;8.252;2023-03-31T11:06:19;26.90;38.70
45843;DHT22;31563;51.744;8.252;2023-03-31T11:08:51;26.50;38.90
45843;DHT22;31563;51.744;8.252;2023-03-31T11:11:26;26.10;39.00
45843;DHT22;31563;51.744;8.252;2023-03-31T11:13:58;25.60;38.70
45843;DHT22;31563;51.744;8.252;2023-03-31T11:16:30;25.00;39.00
45843;DHT22;31563;51.744;8.252;2023-03-31T11:19:03;24.60;40.10
45843;DHT22;31563;51.744;8.252;2023-03-31T11:21:37;24.30;41.00
45843;DHT22;31563;51.744;8.252;2023-03-31T11:24:12;24.10;41.20
45843;DHT22;31563;51.744;8.252;2023-03-31T11:26:44;23.90;42.20
45843;DHT22;31563;51.744;8.252;2023-03-31T11:29:18;23.80;42.50
45843;DHT22;31563;51.744;8.252;2023-03-31T11:31:51;23.80;42.80
45843;DHT22;31563;51.744;8.252;2023-03-31T11:34:39;24.10;43.50
45843;DHT22;31563;51.744;8.252;2023-03-31T11:37:17;24.50;43.50
45843;DHT22;31563;51.744;8.252;2023-03-31T11:39:52;25.00;43.20
45843;DHT22;31563;51.744;8.252;2023-03-31T11:42:24;25.20;41.70
45843;DHT22;31563;51.744;8.252;2023-03-31T11:44:53;25.10;41.10
45843;DHT22;31563;51.744;8.252;2023-03-31T11:47:24;24.70;40.70
45843;DHT22;31563;51.744;8.252;2023-03-31T11:49:53;24.30;40.90
45843;DHT22;31563;51.744;8.252;2023-03-31T11:52:24;24.00;41.40
45843;DHT22;31563;51.744;8.252;2023-03-31T11:54:55;23.70;41.60
45843;DHT22;31563;51.744;8.252;2023-03-31T11:57:27;23.40;41.70
45843;DHT22;31563;51.744;8.252;2023-03-31T11:59:57;23.20;41.80
45843;DHT22;31563;51.744;8.252;2023-03-31T12:02:30;23.10;42.30
45843;DHT22;31563;51.744;8.252;2023-03-31T12:05:00;23.00;42.90
45843;DHT22;31563;51.744;8.252;2023-03-31T12:07:30;23.10;43.30
45843;DHT22;31563;51.744;8.252;2023-03-31T12:09:59;23.10;43.80
45843;DHT22;31563;51.744;8.252;2023-03-31T12:12:32;23.20;43.80
45843;DHT22;31563;51.744;8.252;2023-03-31T12:15:05;23.20;43.90
45843;DHT22;31563;51.744;8.252;2023-03-31T12:17:35;23.30;44.10
45843;DHT22;31563;51.744;8.252;2023-03-31T12:20:04;23.30;44.00
45843;DHT22;31563;51.744;8.252;2023-03-31T12:22:38;23.30;44.10
45843;DHT22;31563;51.744;8.252;2023-03-31T12:25:10;23.60;44.40
45843;DHT22;31563;51.744;8.252;2023-03-31T12:27:38;23.90;44.20
45843;DHT22;31563;51.744;8.252;2023-03-31T12:30:09;24.30;44.10
45843;DHT22;31563;51.744;8.252;2023-03-31T12:32:39;24.50;43.30
45843;DHT22;31563;51.744;8.252;2023-03-31T12:35:09;24.60;42.80
45843;DHT22;31563;51.744;8.252;2023-03-31T12:40:39;24.20;42.70
45843;DHT22;31563;51.744;8.252;2023-03-31T12:43:16;24.10;43.00
45843;DHT22;31563;51.744;8.252;2023-03-31T12:45:47;24.00;43.20
45843;DHT22;31563;51.744;8.252;2023-03-31T12:48:26;23.80;43.30
45843;DHT22;31563;51.744;8.252;2023-03-31T12:51:05;23.70;43.40
45843;DHT22;31563;51.744;8.252;2023-03-31T12:53:38;23.60;43.60
45843;DHT22;31563;51.744;8.252;2023-03-31T12:56:12;23.60;43.70
45843;DHT22;31563;51.744;8.252;2023-03-31T12:58:44;23.50;43.80
45843;DHT22;31563;51.744;8.252;2023-03-31T13:01:13;23.40;43.90
45843;DHT22;31563;51.744;8.252;2023-03-31T13:03:43;23.30;43.90
45843;DHT22;31563;51.744;8.252;2023-03-31T13:08:54;23.20;44.10
45843;DHT22;31563;51.744;8.252;2023-03-31T13:11:34;23.10;44.20
45843;DHT22;31563;51.744;8.252;2023-03-31T13:14:03;23.10;44.30
45843;DHT22;31563;51.744;8.252;2023-03-31T13:16:32;23.00;44.40
45843;DHT22;31563;51.744;8.252;2023-03-31T13:19:01;23.00;44.40
45843;DHT22;31563;51.744;8.252;2023-03-31T13:21:29;23.00;44.50
45843;DHT22;31563;51.744;8.252;2023-03-31T13:23:58;23.00;44.60
45843;DHT22;31563;51.744;8.252;2023-03-31T13:26:37;23.00;44.60
45843;DHT22;31563;51.744;8.252;2023-03-31T13:29:09;23.00;44.60
45843;DHT22;31563;51.744;8.252;2023-03-31T13:34:24;23.10;44.60
45843;DHT22;31563;51.744;8.252;2023-03-31T13:36:56;23.20;44.60
45843;DHT22;31563;51.744;8.252;2023-03-31T13:39:44;23.30;44.70
45843;DHT22;31563;51.744;8.252;2023-03-31T13:45:08;23.60;44.30
45843;DHT22;31563;51.744;8.252;2023-03-31T13:47:44;23.60;44.10
45843;DHT22;31563;51.744;8.252;2023-03-31T13:50:18;23.70;43.90
45843;DHT22;31563;51.744;8.252;2023-03-31T13:52:51;23.70;44.10
45843;DHT22;31563;51.744;8.252;2023-03-31T13:55:26;23.90;44.20
45843;DHT22;31563;51.744;8.252;2023-03-31T14:03:59;24.20;43.10
45843;DHT22;31563;51.744;8.252;2023-03-31T14:06:31;24.20;43.30
45843;DHT22;31563;51.744;8.252;2023-03-31T14:09:02;24.30;43.40
45843;DHT22;31563;51.744;8.252;2023-03-31T14:11:31;24.30;43.20
45843;DHT22;31563;51.744;8.252;2023-03-31T14:14:03;24.40;43.10
45843;DHT22;31563;51.744;8.252;2023-03-31T14:16:32;24.60;43.00
45843;DHT22;31563;51.744;8.252;2023-03-31T14:19:06;24.70;42.70
45843;DHT22;31563;51.744;8.252;2023-03-31T14:21:38;24.80;42.70
45843;DHT22;31563;51.744;8.252;2023-03-31T14:24:12;24.80;42.50
45843;DHT22;31563;51.744;8.252;2023-03-31T14:26:52;24.90;42.40
45843;DHT22;31563;51.744;8.252;2023-03-31T14:29:22;24.90;42.30
45843;DHT22;31563;51.744;8.252;2023-03-31T14:31:56;24.90;42.40
45843;DHT22;31563;51.744;8.252;2023-03-31T14:37:10;25.10;42.30
45843;DHT22;31563;51.744;8.252;2023-03-31T14:39:40;25.10;42.10
45843;DHT22;31563;51.744;8.252;2023-03-31T14:42:09;25.20;42.30
45843;DHT22;31563;51.744;8.252;2023-03-31T14:44:38;25.20;42.10
45843;DHT22;31563;51.744;8.252;2023-03-31T14:47:11;25.20;42.10
45843;DHT22;31563;51.744;8.252;2023-03-31T14:49:39;25.30;42.20
45843;DHT22;31563;51.744;8.252;2023-03-31T14:52:13;25.30;42.10
45843;DHT22;31563;51.744;8.252;2023-03-31T14:54:42;25.30;42.30
45843;DHT22;31563;51.744;8.252;2023-03-31T14:57:15;25.40;42.30
45843;DHT22;31563;51.744;8.252;2023-03-31T14:59:44;25.50;42.20
45843;DHT22;31563;51.744;8.252;2023-03-31T15:02:13;25.60;42.10
45843;DHT22;31563;51.744;8.252;2023-03-31T15:04:42;25.60;42.00
45843;DHT22;31563;51.744;8.252;2023-03-31T15:07:15;25.50;41.90
45843;DHT22;31563;51.744;8.252;2023-03-31T15:09:44;26.20;42.40
45843;DHT22;31563;51.744;8.252;2023-03-31T15:12:15;25.50;42.60
45843;DHT22;31563;51.744;8.252;2023-03-31T15:14:45;25.40;42.00
45843;DHT22;31563;51.744;8.252;2023-03-31T15:17:17;25.40;42.10
45843;DHT22;31563;51.744;8.252;2023-03-31T15:19:45;25.50;42.10
45843;DHT22;31563;51.744;8.252;2023-03-31T15:22:14;25.50;42.20
45843;DHT22;31563;51.744;8.252;2023-03-31T15:24:44;25.50;42.20
45843;DHT22;31563;51.744;8.252;2023-03-31T15:27:13;25.50;42.30
45843;DHT22;31563;51.744;8.252;2023-03-31T15:29:49;25.60;42.30
45843;DHT22;31563;51.744;8.252;2023-03-31T15:32:19;25.70;42.30
45843;DHT22;31563;51.744;8.252;2023-03-31T15:34:50;25.80;42.40
45843;DHT22;31563;51.744;8.252;2023-03-31T15:37:21;25.70;42.00
45843;DHT22;31563;51.744;8.252;2023-03-31T15:39:49;25.70;42.00
45843;DHT22;31563;51.744;8.252;2023-03-31T15:42:17;25.70;42.10
45843;DHT22;31563;51.744;8.252;2023-03-31T15:44:46;25.60;42.00
45843;DHT22;31563;51.744;8.252;2023-03-31T15:47:18;25.60;42.10
45843;DHT22;31563;51.744;8.252;2023-03-31T15:49:50;25.60;42.10
45843;DHT22;31563;51.744;8.252;2023-03-31T15:52:24;25.60;42.20
45843;DHT22;31563;51.744;8.252;2023-03-31T15:54:52;25.50;42.20
45843;DHT22;31563;51.744;8.252;2023-03-31T15:57:21;25.40;42.30
45843;DHT22;31563;51.744;8.252;2023-03-31T15:59:57;25.40;43.10
45843;DHT22;31563;51.744;8.252;2023-03-31T16:02:26;25.30;42.50
45843;DHT22;31563;51.744;8.252;2023-03-31T16:04:57;25.30;42.60
45843;DHT22;31563;51.744;8.252;2023-03-31T16:07:28;25.20;42.80
45843;DHT22;31563;51.744;8.252;2023-03-31T16:09:59;25.10;43.00
45843;DHT22;31563;51.744;8.252;2023-03-31T16:12:28;25.10;43.00
45843;DHT22;31563;51.744;8.252;2023-03-31T16:14:59;25.00;43.00
45843;DHT22;31563;51.744;8.252;2023-03-31T16:17:29;24.90;43.00
45843;DHT22;31563;51.744;8.252;2023-03-31T16:19:59;24.90;43.20